createdAt,value
2022-09-28T00:02:25.481Z,10.60
2022-09-28T00:05:13.653Z,10.60
2022-09-28T00:08:00.311Z,10.70
2022-09-28T00:10:55.129Z,10.60
2022-09-28T00:13:42.821Z,10.70
2022-09-28T00:16:32.163Z,10.70
2022-09-28T00:19:20.303Z,10.50
2022-09-28T00:22:08.294Z,10.50
2022-09-28T00:24:54.493Z,10.50
2022-09-28T00:27:41.224Z,10.50
2022-09-28T00:30:27.481Z,10.50
2022-09-28T00:33:14.101Z,10.50
2022-09-28T00:36:00.575Z,10.60
2022-09-28T00:38:48.934Z,10.70
2022-09-28T00:41:36.249Z,10.70
2022-09-28T00:44:44.658Z,10.80
2022-09-28T00:47:42.011Z,10.80
2022-09-28T00:50:33.165Z,10.60
2022-09-28T00:53:24.488Z,10.70
2022-09-28T00:56:17.412Z,10.70
2022-09-28T00:59:04.644Z,10.70
2022-09-28T01:01:51.060Z,10.80
2022-09-28T01:04:39.580Z,10.70
2022-09-28T01:07:26.658Z,10.70
2022-09-28T01:10:13.474Z,10.70
2022-09-28T01:13:01.393Z,10.70
2022-09-28T01:15:55.445Z,10.80
2022-09-28T01:18:54.618Z,10.90
2022-09-28T01:21:52.952Z,10.80
2022-09-28T01:24:43.867Z,10.70
2022-09-28T01:27:36.059Z,10.60
2022-09-28T01:30:23.426Z,10.60
2022-09-28T01:33:14.024Z,10.50
2022-09-28T01:36:07.157Z,10.50
2022-09-28T01:38:56.899Z,10.60
2022-09-28T01:41:47.357Z,10.80
2022-09-28T01:44:40.111Z,10.90
2022-09-28T01:47:32.397Z,10.80
2022-09-28T01:50:22.624Z,10.80
2022-09-28T01:53:14.722Z,10.80
2022-09-28T01:56:06.754Z,10.80
2022-09-28T01:58:56.476Z,10.80
2022-09-28T02:01:48.748Z,10.90
2022-09-28T02:04:40.140Z,11.00
2022-09-28T02:07:35.776Z,11.10
2022-09-28T02:10:26.685Z,11.10
2022-09-28T02:13:18.682Z,11.10
2022-09-28T02:16:11.278Z,11.10
2022-09-28T02:18:59.767Z,11.10
2022-09-28T02:21:54.325Z,11.10
2022-09-28T02:24:48.143Z,11.10
2022-09-28T02:27:46.210Z,11.10
2022-09-28T02:30:34.643Z,11.00
2022-09-28T02:33:25.770Z,11.10
2022-09-28T02:36:14.379Z,11.10
2022-09-28T02:39:03.266Z,11.10
2022-09-28T02:42:08.849Z,11.00
2022-09-28T02:45:11.352Z,11.00
2022-09-28T02:48:12.246Z,10.90
2022-09-28T02:51:07.164Z,10.90
2022-09-28T02:54:18.664Z,10.90
2022-09-28T02:57:26.327Z,10.90
2022-09-28T03:00:18.650Z,10.90
2022-09-28T03:03:18.940Z,10.90
2022-09-28T03:06:12.001Z,10.90
2022-09-28T03:09:10.817Z,10.90
2022-09-28T03:12:01.974Z,10.90
2022-09-28T03:14:50.981Z,10.90
2022-09-28T03:17:37.821Z,10.90
2022-09-28T03:20:24.995Z,10.90
2022-09-28T03:23:24.307Z,10.90
2022-09-28T03:26:13.581Z,10.90
2022-09-28T03:29:00.182Z,10.90
2022-09-28T03:31:47.879Z,10.90
2022-09-28T03:34:35.520Z,11.00
2022-09-28T03:37:21.900Z,10.90
2022-09-28T03:40:08.703Z,11.00
2022-09-28T03:42:56.453Z,11.00
2022-09-28T03:45:43.135Z,10.90
2022-09-28T03:48:32.932Z,10.90
2022-09-28T03:51:19.712Z,11.00
2022-09-28T03:54:06.501Z,11.00
2022-09-28T03:56:53.035Z,11.00
2022-09-28T03:59:40.703Z,11.00
2022-09-28T04:02:27.546Z,10.90
2022-09-28T04:05:14.590Z,10.90
2022-09-28T04:08:01.004Z,10.90
2022-09-28T04:10:47.845Z,11.00
2022-09-28T04:13:34.180Z,10.90
2022-09-28T04:16:22.382Z,11.00
2022-09-28T04:19:25.182Z,11.00
2022-09-28T04:22:20.781Z,11.00
2022-09-28T04:25:07.850Z,11.00
2022-09-28T04:28:11.685Z,11.00
2022-09-28T04:30:58.300Z,11.10
2022-09-28T04:33:47.017Z,11.00
2022-09-28T04:36:34.045Z,11.00
2022-09-28T04:39:20.372Z,11.00
2022-09-28T04:42:11.010Z,11.00
2022-09-28T04:45:00.805Z,11.10
2022-09-28T04:47:47.893Z,11.00
2022-09-28T04:50:59.744Z,11.00
2022-09-28T04:53:46.633Z,11.00
2022-09-28T04:56:33.573Z,11.00
2022-09-28T04:59:20.364Z,10.90
2022-09-28T05:02:07.305Z,11.10
2022-09-28T05:05:12.605Z,11.00
2022-09-28T05:08:26.207Z,10.90
2022-09-28T05:11:13.675Z,10.90
2022-09-28T05:14:00.009Z,11.00
2022-09-28T05:16:46.937Z,11.00
2022-09-28T05:19:46.043Z,11.00
2022-09-28T05:22:34.176Z,11.00
2022-09-28T05:25:22.263Z,11.10
2022-09-28T05:28:35.421Z,11.10
2022-09-28T05:31:41.019Z,11.10
2022-09-28T05:34:33.853Z,11.10
2022-09-28T05:37:20.732Z,11.10
2022-09-28T05:40:07.850Z,11.00
2022-09-28T05:43:00.272Z,11.10
2022-09-28T05:45:48.534Z,11.20
2022-09-28T05:48:38.504Z,11.20
2022-09-28T05:51:25.321Z,11.20
2022-09-28T05:54:12.472Z,11.10
2022-09-28T05:57:02.696Z,11.20
2022-09-28T05:59:50.894Z,11.20
2022-09-28T06:02:37.748Z,11.20
2022-09-28T06:05:25.532Z,11.20
2022-09-28T06:08:12.054Z,11.30
2022-09-28T06:11:03.847Z,11.20
2022-09-28T06:13:54.525Z,11.30
2022-09-28T06:16:43.975Z,11.30
2022-09-28T06:19:31.652Z,11.30
2022-09-28T06:22:24.229Z,11.10
2022-09-28T06:25:18.545Z,11.20
2022-09-28T06:28:07.072Z,11.30
2022-09-28T06:30:54.160Z,11.20
2022-09-28T06:33:43.064Z,11.20
2022-09-28T06:36:31.293Z,11.20
2022-09-28T06:39:18.513Z,11.30
2022-09-28T06:42:06.316Z,11.20
2022-09-28T06:45:13.445Z,11.30
2022-09-28T06:48:22.966Z,11.40
2022-09-28T06:51:11.020Z,11.30
2022-09-28T06:54:26.689Z,11.40
2022-09-28T06:57:20.392Z,11.40
2022-09-28T07:00:08.612Z,11.40
2022-09-28T07:02:55.999Z,11.40
2022-09-28T07:05:57.795Z,11.40
2022-09-28T07:09:08.130Z,11.50
2022-09-28T07:12:23.236Z,11.50
2022-09-28T07:15:15.417Z,11.50
2022-09-28T07:18:04.273Z,11.50
2022-09-28T07:20:54.490Z,11.60
2022-09-28T07:23:51.098Z,11.60
2022-09-28T07:26:45.390Z,11.60
2022-09-28T07:29:52.908Z,11.70
2022-09-28T07:32:52.309Z,11.60
2022-09-28T07:35:52.566Z,11.70
2022-09-28T07:38:41.196Z,11.70
2022-09-28T07:41:33.115Z,11.70
2022-09-28T07:44:23.768Z,11.70
2022-09-28T07:47:13.441Z,11.80
2022-09-28T07:50:20.955Z,11.70
2022-09-28T07:53:28.437Z,11.80
2022-09-28T07:56:39.365Z,11.90
2022-09-28T07:59:46.168Z,12.10
2022-09-28T08:02:48.278Z,12.20
2022-09-28T08:05:43.262Z,12.60
2022-09-28T08:08:30.054Z,12.90
2022-09-28T08:11:19.348Z,12.90
2022-09-28T08:14:34.312Z,13.00
2022-09-28T08:17:51.744Z,13.20
2022-09-28T08:20:58.036Z,13.40
2022-09-28T08:23:45.173Z,13.50
2022-09-28T08:26:31.769Z,13.60
2022-09-28T08:29:18.708Z,13.60
2022-09-28T08:32:19.857Z,13.30
2022-09-28T08:35:26.678Z,13.10
2022-09-28T08:38:48.586Z,12.90
2022-09-28T08:41:52.708Z,12.80
2022-09-28T08:44:59.984Z,12.80
2022-09-28T08:48:39.933Z,12.80
2022-09-28T08:52:04.501Z,12.90
2022-09-28T08:55:06.772Z,13.00
2022-09-28T08:58:03.537Z,12.90
2022-09-28T09:00:54.367Z,13.00
2022-09-28T09:03:45.497Z,13.30
2022-09-28T09:07:08.663Z,13.80
2022-09-28T09:10:09.524Z,14.10
2022-09-28T09:13:07.198Z,14.10
2022-09-28T09:15:58.521Z,14.10
2022-09-28T09:19:35.574Z,14.10
2022-09-28T09:22:59.577Z,14.60
2022-09-28T09:25:50.277Z,15.00
2022-09-28T09:29:11.493Z,15.10
2022-09-28T09:32:19.823Z,15.30
2022-09-28T09:35:31.475Z,15.90
2022-09-28T09:38:49.143Z,16.30
2022-09-28T09:42:10.732Z,16.50
2022-09-28T09:45:16.870Z,16.20
2022-09-28T09:48:32.231Z,16.30
2022-09-28T09:51:29.905Z,16.40
2022-09-28T09:54:27.244Z,16.80
2022-09-28T09:57:18.349Z,16.90
2022-09-28T10:00:19.818Z,16.40
2022-09-28T10:03:25.704Z,16.00
2022-09-28T10:06:19.622Z,16.00
2022-09-28T10:09:11.132Z,15.40
2022-09-28T10:11:59.233Z,15.20
2022-09-28T10:14:46.477Z,14.80
2022-09-28T10:17:35.161Z,14.60
2022-09-28T10:20:47.750Z,14.90
2022-09-28T10:23:40.772Z,15.70
2022-09-28T10:26:34.433Z,16.20
2022-09-28T10:29:26.880Z,16.30
2022-09-28T10:32:21.364Z,16.50
2022-09-28T10:35:23.057Z,16.40
2022-09-28T10:38:18.441Z,15.80
2022-09-28T10:41:13.370Z,16.00
2022-09-28T10:44:18.660Z,15.80
2022-09-28T10:47:31.271Z,15.90
2022-09-28T10:50:22.778Z,16.00
2022-09-28T10:53:20.449Z,16.40
2022-09-28T10:56:38.180Z,16.60
2022-09-28T10:59:43.277Z,16.40
2022-09-28T11:02:46.595Z,16.50
2022-09-28T11:05:37.749Z,16.40
2022-09-28T11:08:27.702Z,16.30
2022-09-28T11:11:19.352Z,16.20
2022-09-28T11:14:22.965Z,16.00
2022-09-28T11:17:17.841Z,16.00
2022-09-28T11:20:33.049Z,16.00
2022-09-28T11:23:27.486Z,15.90
2022-09-28T11:26:18.748Z,15.90
2022-09-28T11:29:07.575Z,15.70
2022-09-28T11:32:15.491Z,15.60
2022-09-28T11:35:38.415Z,15.90
2022-09-28T11:38:40.571Z,16.00
2022-09-28T11:42:01.690Z,16.00
2022-09-28T11:44:58.328Z,16.60
2022-09-28T11:47:50.496Z,16.70
2022-09-28T11:50:48.586Z,16.50
2022-09-28T11:53:40.032Z,16.00
2022-09-28T11:56:34.944Z,15.70
2022-09-28T11:59:27.515Z,15.30
2022-09-28T12:02:22.043Z,15.30
2022-09-28T12:05:21.266Z,15.20
2022-09-28T12:08:17.192Z,15.20
2022-09-28T12:11:32.088Z,15.30
2022-09-28T12:14:40.931Z,15.20
2022-09-28T12:17:33.444Z,15.10
2022-09-28T12:20:26.869Z,15.10
2022-09-28T12:23:19.367Z,15.00
2022-09-28T12:26:11.535Z,15.00
2022-09-28T12:29:01.161Z,15.20
2022-09-28T12:31:56.830Z,15.30
2022-09-28T12:34:43.858Z,15.50
2022-09-28T12:37:41.848Z,16.30
2022-09-28T12:40:38.719Z,16.70
2022-09-28T12:43:41.704Z,17.10
2022-09-28T12:46:38.438Z,17.40
2022-09-28T12:52:51.074Z,17.50
2022-09-28T12:55:56.418Z,17.10
2022-09-28T12:58:55.856Z,16.60
2022-09-28T13:01:58.324Z,16.40
2022-09-28T13:05:03.279Z,16.20
2022-09-28T13:07:53.852Z,16.10
2022-09-28T13:10:48.058Z,15.80
2022-09-28T13:13:44.814Z,15.70
2022-09-28T13:16:38.965Z,15.70
2022-09-28T13:19:29.068Z,15.60
2022-09-28T13:22:29.098Z,15.40
2022-09-28T13:25:19.005Z,15.40
2022-09-28T13:28:07.107Z,15.30
2022-09-28T13:30:56.748Z,15.30
2022-09-28T13:33:46.688Z,15.40
2022-09-28T13:36:47.159Z,15.20
2022-09-28T13:39:56.558Z,15.20
2022-09-28T13:43:10.507Z,15.10
2022-09-28T13:46:06.357Z,15.10
2022-09-28T13:49:05.099Z,15.10
2022-09-28T13:52:05.460Z,15.10
2022-09-28T13:55:03.527Z,15.30
2022-09-28T13:57:56.672Z,15.40
2022-09-28T14:00:49.964Z,15.30
2022-09-28T14:03:55.016Z,15.20
2022-09-28T14:06:48.161Z,15.40
2022-09-28T14:09:46.726Z,15.30
2022-09-28T14:12:48.457Z,15.20
2022-09-28T14:15:46.572Z,15.10
2022-09-28T14:18:34.681Z,15.20
2022-09-28T14:22:00.275Z,15.20
2022-09-28T14:25:02.056Z,15.10
2022-09-28T14:28:03.061Z,15.10
2022-09-28T14:30:53.021Z,15.10
2022-09-28T14:33:42.644Z,15.10
2022-09-28T14:36:55.581Z,15.00
2022-09-28T14:40:03.660Z,14.90
2022-09-28T14:43:20.565Z,14.80
2022-09-28T14:46:33.439Z,14.80
2022-09-28T14:49:52.588Z,14.60
2022-09-28T14:52:47.216Z,14.50
2022-09-28T14:55:50.186Z,14.60
2022-09-28T14:58:38.371Z,14.60
2022-09-28T15:01:26.960Z,14.60
2022-09-28T15:04:14.709Z,14.60
2022-09-28T15:07:01.746Z,14.60
2022-09-28T15:09:51.342Z,14.60
2022-09-28T15:12:38.038Z,14.70
2022-09-28T15:15:29.420Z,14.80
2022-09-28T15:18:35.137Z,14.80
2022-09-28T15:21:22.236Z,14.80
2022-09-28T15:24:28.828Z,14.80
2022-09-28T15:27:19.035Z,14.90
2022-09-28T15:30:22.048Z,14.80
2022-09-28T15:33:42.891Z,14.80
2022-09-28T15:36:32.075Z,14.70
2022-09-28T15:39:22.527Z,14.60
2022-09-28T15:42:09.228Z,14.40
2022-09-28T15:45:26.615Z,14.40
2022-09-28T15:48:27.083Z,14.30
2022-09-28T15:51:13.836Z,14.20
2022-09-28T15:54:04.229Z,13.90
2022-09-28T15:56:59.639Z,13.70
2022-09-28T15:59:56.910Z,13.50
2022-09-28T16:03:00.293Z,13.30
2022-09-28T16:05:49.960Z,13.20
2022-09-28T16:08:42.053Z,13.20
2022-09-28T16:11:36.892Z,13.10
2022-09-28T16:14:26.297Z,13.00
2022-09-28T16:17:17.494Z,13.00
2022-09-28T16:20:19.545Z,12.90
2022-09-28T16:23:15.612Z,12.90
2022-09-28T16:26:03.883Z,13.10
2022-09-28T16:28:52.004Z,13.10
2022-09-28T16:31:41.426Z,13.30
2022-09-28T16:34:30.177Z,13.30
2022-09-28T16:37:32.597Z,13.30
2022-09-28T16:40:18.941Z,13.10
2022-09-28T16:43:14.926Z,13.00
2022-09-28T16:46:07.316Z,12.90
2022-09-28T16:48:55.492Z,12.90
2022-09-28T16:51:41.841Z,12.90
2022-09-28T16:54:47.888Z,12.90
2022-09-28T16:57:35.166Z,13.00
2022-09-28T17:00:24.019Z,13.10
2022-09-28T17:03:14.916Z,13.10
2022-09-28T17:06:04.378Z,13.20
2022-09-28T17:08:51.592Z,13.00
2022-09-28T17:11:39.808Z,12.90
2022-09-28T17:14:26.149Z,13.00
2022-09-28T17:17:16.951Z,13.00
2022-09-28T17:20:17.248Z,13.00
2022-09-28T17:23:03.552Z,13.00
2022-09-28T17:25:50.155Z,12.80
2022-09-28T17:28:38.325Z,12.60
2022-09-28T17:31:24.937Z,12.40
2022-09-28T17:34:12.774Z,12.40
2022-09-28T17:36:59.668Z,12.10
2022-09-28T17:39:45.907Z,12.00
2022-09-28T17:42:32.412Z,11.90
2022-09-28T17:45:20.184Z,11.80
2022-09-28T17:48:08.990Z,12.00
2022-09-28T17:50:55.268Z,12.10
2022-09-28T17:53:41.704Z,12.30
2022-09-28T17:56:32.238Z,12.20
2022-09-28T17:59:19.641Z,12.30
2022-09-28T18:02:10.726Z,12.20
2022-09-28T18:04:57.937Z,12.30
2022-09-28T18:07:47.683Z,12.40
2022-09-28T18:10:35.190Z,12.30
2022-09-28T18:13:21.849Z,12.20
2022-09-28T18:16:09.283Z,12.30
2022-09-28T18:18:57.461Z,12.10
2022-09-28T18:21:44.060Z,12.00
2022-09-28T18:24:32.366Z,11.90
2022-09-28T18:27:19.002Z,11.70
2022-09-28T18:30:06.890Z,11.70
2022-09-28T18:32:53.178Z,11.70
2022-09-28T18:35:41.224Z,11.60
2022-09-28T18:38:27.957Z,11.50
2022-09-28T18:41:16.264Z,11.20
2022-09-28T18:44:02.862Z,11.10
2022-09-28T18:46:49.378Z,11.00
2022-09-28T18:49:36.208Z,10.90
2022-09-28T18:52:23.879Z,10.80
2022-09-28T18:55:11.701Z,10.70
2022-09-28T18:57:58.282Z,10.50
2022-09-28T19:00:44.637Z,10.50
2022-09-28T19:03:31.226Z,10.50
2022-09-28T19:06:18.253Z,10.60
2022-09-28T19:09:06.509Z,10.70
2022-09-28T19:11:53.331Z,10.70
2022-09-28T19:14:40.187Z,10.90
2022-09-28T19:17:26.719Z,10.90
2022-09-28T19:20:13.310Z,10.80
2022-09-28T19:23:00.165Z,10.70
2022-09-28T19:25:48.098Z,10.60
2022-09-28T19:28:35.065Z,10.70
2022-09-28T19:31:22.556Z,10.70
2022-09-28T19:34:11.911Z,10.70
2022-09-28T19:37:03.755Z,10.80
2022-09-28T19:39:50.143Z,10.80
2022-09-28T19:42:39.496Z,10.70
2022-09-28T19:45:26.193Z,10.80
2022-09-28T19:48:12.671Z,10.50
2022-09-28T19:51:00.727Z,10.40
2022-09-28T19:53:47.118Z,10.40
2022-09-28T19:56:34.337Z,10.40
2022-09-28T19:59:22.946Z,10.40
2022-09-28T20:02:11.513Z,10.50
2022-09-28T20:04:58.272Z,10.50
2022-09-28T20:07:46.075Z,10.50
2022-09-28T20:10:32.426Z,10.40
2022-09-28T20:13:18.967Z,10.30
2022-09-28T20:16:09.112Z,10.30
2022-09-28T20:19:00.533Z,10.40
2022-09-28T20:21:48.105Z,10.50
2022-09-28T20:24:34.684Z,10.40
2022-09-28T20:27:24.329Z,10.50
2022-09-28T20:30:14.018Z,10.60
2022-09-28T20:33:01.823Z,10.60
2022-09-28T20:35:48.414Z,10.70
2022-09-28T20:38:38.234Z,10.60
2022-09-28T20:41:25.645Z,10.40
2022-09-28T20:44:11.948Z,10.40
2022-09-28T20:46:58.260Z,10.30
2022-09-28T20:49:46.387Z,10.30
2022-09-28T20:52:32.928Z,10.30
2022-09-28T20:55:19.173Z,10.20
2022-09-28T20:58:05.590Z,10.20
2022-09-28T21:00:52.005Z,10.20
2022-09-28T21:03:39.289Z,10.20
2022-09-28T21:06:28.966Z,10.20
2022-09-28T21:09:15.625Z,10.10
2022-09-28T21:12:02.629Z,10.20
2022-09-28T21:14:49.154Z,10.10
2022-09-28T21:17:35.818Z,10.00
2022-09-28T21:20:22.309Z,10.00
2022-09-28T21:23:10.029Z,10.00
2022-09-28T21:26:04.305Z,10.00
2022-09-28T21:28:52.910Z,9.90
2022-09-28T21:31:41.528Z,9.90
2022-09-28T21:34:28.086Z,10.00
2022-09-28T21:37:14.693Z,9.90
2022-09-28T21:40:06.149Z,9.90
2022-09-28T21:42:52.543Z,9.80
2022-09-28T21:45:39.569Z,9.80
2022-09-28T21:48:27.851Z,9.80
2022-09-28T21:51:16.041Z,9.60
2022-09-28T21:54:02.524Z,9.60
2022-09-28T21:56:50.193Z,9.60
2022-09-28T21:59:36.578Z,9.50
2022-09-28T22:02:23.188Z,9.60
2022-09-28T22:05:11.809Z,9.50
2022-09-28T22:07:58.387Z,9.60
2022-09-28T22:10:44.808Z,9.60
2022-09-28T22:13:34.112Z,9.70
2022-09-28T22:16:22.256Z,9.50
2022-09-28T22:19:08.683Z,9.40
2022-09-28T22:21:55.315Z,9.40
2022-09-28T22:24:41.753Z,9.30
2022-09-28T22:27:31.569Z,9.30
2022-09-28T22:30:19.125Z,9.30
2022-09-28T22:33:05.666Z,9.30
2022-09-28T22:35:52.439Z,9.20
2022-09-28T22:38:39.655Z,9.30
2022-09-28T22:41:26.448Z,9.30
2022-09-28T22:44:13.012Z,9.20
2022-09-28T22:47:00.655Z,9.10
2022-09-28T22:49:47.060Z,9.10
2022-09-28T22:52:33.405Z,8.90
2022-09-28T22:55:20.022Z,9.10
2022-09-28T22:58:06.229Z,9.10
2022-09-28T23:00:52.990Z,9.10
2022-09-28T23:03:42.131Z,9.10
2022-09-28T23:06:30.242Z,9.00
2022-09-28T23:09:16.930Z,9.00
2022-09-28T23:12:03.175Z,8.90
2022-09-28T23:14:49.572Z,8.80
2022-09-28T23:17:35.984Z,8.70
2022-09-28T23:20:23.981Z,8.70
2022-09-28T23:23:10.438Z,8.60
2022-09-28T23:25:57.394Z,8.60
2022-09-28T23:28:44.533Z,8.50
2022-09-28T23:31:32.680Z,8.60
2022-09-28T23:34:19.774Z,8.60
2022-09-28T23:37:07.940Z,8.60
2022-09-28T23:39:54.520Z,8.60
2022-09-28T23:42:40.830Z,8.40
2022-09-28T23:45:27.340Z,8.50
2022-09-28T23:48:14.813Z,8.50
2022-09-28T23:51:01.606Z,8.50
2022-09-28T23:53:49.654Z,8.50
2022-09-28T23:56:36.362Z,8.50
2022-09-28T23:59:22.657Z,8.50
